sensor_id;sensor_type;location;lat;lon;timestamp;pressure;altitude;pressure_sealevel;temperature;humidity
24160;BME280;62385;41.594;23.808;2024-03-02T00:01:10;94957.03;;;8.88;88.54
24160;BME280;62385;41.594;23.808;2024-03-02T00:03:39;94937.19;;;8.84;88.55
24160;BME280;62385;41.594;23.808;2024-03-02T00:06:04;94965.06;;;9.02;86.99
24160;BME280;62385;41.594;23.808;2024-03-02T00:08:30;94961.09;;;9.06;87.80
24160;BME280;62385;41.594;23.808;2024-03-02T00:11:01;94963.59;;;8.69;90.55
24160;BME280;62385;41.594;23.808;2024-03-02T00:13:29;94952.97;;;8.77;89.58
24160;BME280;62385;41.594;23.808;2024-03-02T00:15:56;94959.03;;;8.86;90.16
24160;BME280;62385;41.594;23.808;2024-03-02T00:20:56;94951.63;;;8.81;89.78
24160;BME280;62385;41.594;23.808;2024-03-02T00:23:27;94925.91;;;8.59;89.51
24160;BME280;62385;41.594;23.808;2024-03-02T00:25:55;94964.81;;;8.89;90.41
24160;BME280;62385;41.594;23.808;2024-03-02T00:28:54;94919.50;;;8.84;90.24
24160;BME280;62385;41.594;23.808;2024-03-02T00:31:22;94958.84;;;8.87;88.17
24160;BME280;62385;41.594;23.808;2024-03-02T00:33:48;94948.47;;;8.86;89.56
24160;BME280;62385;41.594;23.808;2024-03-02T00:36:16;94950.22;;;8.93;89.38
24160;BME280;62385;41.594;23.808;2024-03-02T00:38:52;94943.59;;;8.97;89.42
24160;BME280;62385;41.594;23.808;2024-03-02T00:41:25;94943.22;;;8.77;90.50
24160;BME280;62385;41.594;23.808;2024-03-02T00:43:57;94884.13;;;8.46;90.10
24160;BME280;62385;41.594;23.808;2024-03-02T00:46:33;94937.47;;;8.97;88.26
24160;BME280;62385;41.594;23.808;2024-03-02T00:49:00;94937.88;;;9.08;87.72
24160;BME280;62385;41.594;23.808;2024-03-02T00:51:30;94884.56;;;8.89;88.64
24160;BME280;62385;41.594;23.808;2024-03-02T00:53:59;94901.97;;;8.83;89.52
24160;BME280;62385;41.594;23.808;2024-03-02T00:56:25;94919.75;;;8.97;89.94
24160;BME280;62385;41.594;23.808;2024-03-02T00:58:52;94923.88;;;9.00;90.99
24160;BME280;62385;41.594;23.808;2024-03-02T01:01:18;94876.31;;;8.84;89.43
24160;BME280;62385;41.594;23.808;2024-03-02T01:03:45;94912.94;;;9.25;87.37
24160;BME280;62385;41.594;23.808;2024-03-02T01:06:11;94862.97;;;8.77;88.18
24160;BME280;62385;41.594;23.808;2024-03-02T01:08:37;94885.16;;;8.76;89.74
24160;BME280;62385;41.594;23.808;2024-03-02T01:11:03;94895.41;;;8.71;90.29
24160;BME280;62385;41.594;23.808;2024-03-02T01:13:29;94873.38;;;8.78;90.15
24160;BME280;62385;41.594;23.808;2024-03-02T01:15:55;94909.91;;;9.14;89.18
24160;BME280;62385;41.594;23.808;2024-03-02T01:18:20;94901.28;;;8.89;89.47
24160;BME280;62385;41.594;23.808;2024-03-02T01:20:47;94899.63;;;8.88;90.97
24160;BME280;62385;41.594;23.808;2024-03-02T01:23:13;94898.13;;;8.94;90.12
24160;BME280;62385;41.594;23.808;2024-03-02T01:25:38;94868.66;;;8.66;91.20
24160;BME280;62385;41.594;23.808;2024-03-02T01:28:04;94902.94;;;8.90;91.02
24160;BME280;62385;41.594;23.808;2024-03-02T01:30:30;94854.56;;;8.73;90.14
24160;BME280;62385;41.594;23.808;2024-03-02T01:32:56;94873.41;;;8.48;90.74
24160;BME280;62385;41.594;23.808;2024-03-02T01:35:21;94898.31;;;8.84;90.60
24160;BME280;62385;41.594;23.808;2024-03-02T01:37:47;94878.66;;;8.78;90.88
24160;BME280;62385;41.594;23.808;2024-03-02T01:40:12;94890.50;;;8.91;90.64
24160;BME280;62385;41.594;23.808;2024-03-02T01:42:38;94878.91;;;8.92;91.52
24160;BME280;62385;41.594;23.808;2024-03-02T01:45:05;94891.06;;;8.86;91.42
24160;BME280;62385;41.594;23.808;2024-03-02T01:47:31;94851.97;;;8.65;90.42
24160;BME280;62385;41.594;23.808;2024-03-02T01:49:57;94895.22;;;8.80;91.68
24160;BME280;62385;41.594;23.808;2024-03-02T01:52:23;94871.75;;;8.77;92.17
24160;BME280;62385;41.594;23.808;2024-03-02T01:54:49;94890.38;;;8.84;91.98
24160;BME280;62385;41.594;23.808;2024-03-02T01:57:15;94878.44;;;8.88;91.62
24160;BME280;62385;41.594;23.808;2024-03-02T01:59:41;94881.78;;;8.82;93.38
24160;BME280;62385;41.594;23.808;2024-03-02T02:02:07;94866.53;;;8.61;92.77
24160;BME280;62385;41.594;23.808;2024-03-02T02:04:33;94876.38;;;8.75;92.92
24160;BME280;62385;41.594;23.808;2024-03-02T02:06:59;94882.91;;;8.88;93.13
24160;BME280;62385;41.594;23.808;2024-03-02T02:09:25;94833.84;;;8.54;92.66
24160;BME280;62385;41.594;23.808;2024-03-02T02:11:51;94870.97;;;8.69;92.72
24160;BME280;62385;41.594;23.808;2024-03-02T02:14:17;94891.75;;;8.80;93.16
24160;BME280;62385;41.594;23.808;2024-03-02T02:16:43;94855.16;;;8.61;92.56
24160;BME280;62385;41.594;23.808;2024-03-02T02:19:08;94858.31;;;8.56;92.93
24160;BME280;62385;41.594;23.808;2024-03-02T02:21:34;94878.88;;;8.77;93.19
24160;BME280;62385;41.594;23.808;2024-03-02T02:24:00;94871.75;;;8.77;92.85
24160;BME280;62385;41.594;23.808;2024-03-02T02:26:29;94846.84;;;8.64;92.85
24160;BME280;62385;41.594;23.808;2024-03-02T02:28:54;94836.81;;;8.12;94.03
24160;BME280;62385;41.594;23.808;2024-03-02T02:31:20;94867.28;;;8.47;94.71
24160;BME280;62385;41.594;23.808;2024-03-02T02:33:45;94868.97;;;8.71;93.06
24160;BME280;62385;41.594;23.808;2024-03-02T02:36:11;94837.25;;;8.63;92.90
24160;BME280;62385;41.594;23.808;2024-03-02T02:38:42;94879.63;;;8.86;92.45
24160;BME280;62385;41.594;23.808;2024-03-02T02:41:09;94836.31;;;8.56;93.54
24160;BME280;62385;41.594;23.808;2024-03-02T02:43:34;94888.19;;;8.65;93.81
24160;BME280;62385;41.594;23.808;2024-03-02T02:46:00;94864.97;;;8.75;93.68
24160;BME280;62385;41.594;23.808;2024-03-02T02:48:25;94859.66;;;8.75;93.20
24160;BME280;62385;41.594;23.808;2024-03-02T02:50:51;94884.22;;;8.92;92.88
24160;BME280;62385;41.594;23.808;2024-03-02T02:53:17;94878.44;;;8.88;93.11
24160;BME280;62385;41.594;23.808;2024-03-02T02:55:42;94865.00;;;8.67;92.79
24160;BME280;62385;41.594;23.808;2024-03-02T02:58:09;94885.50;;;8.73;93.83
24160;BME280;62385;41.594;23.808;2024-03-02T03:00:35;94888.16;;;8.73;93.09
24160;BME280;62385;41.594;23.808;2024-03-02T03:03:01;94888.94;;;8.82;93.23
24160;BME280;62385;41.594;23.808;2024-03-02T03:05:27;94866.78;;;8.74;93.10
24160;BME280;62385;41.594;23.808;2024-03-02T03:07:52;94884.78;;;8.79;93.09
24160;BME280;62385;41.594;23.808;2024-03-02T03:10:18;94897.03;;;8.80;92.78
24160;BME280;62385;41.594;23.808;2024-03-02T03:12:46;94870.44;;;8.73;92.70
24160;BME280;62385;41.594;23.808;2024-03-02T03:15:12;94847.44;;;8.04;95.08
24160;BME280;62385;41.594;23.808;2024-03-02T03:17:37;94852.38;;;8.07;96.18
24160;BME280;62385;41.594;23.808;2024-03-02T03:20:03;94882.53;;;8.68;93.96
24160;BME280;62385;41.594;23.808;2024-03-02T03:22:31;94887.28;;;8.80;93.40
24160;BME280;62385;41.594;23.808;2024-03-02T03:24:57;94871.75;;;8.77;93.83
24160;BME280;62385;41.594;23.808;2024-03-02T03:27:22;94865.38;;;8.87;92.15
24160;BME280;62385;41.594;23.808;2024-03-02T03:29:48;94871.97;;;8.68;92.98
24160;BME280;62385;41.594;23.808;2024-03-02T03:32:14;94868.06;;;8.56;93.57
24160;BME280;62385;41.594;23.808;2024-03-02T03:34:39;94870.19;;;8.60;93.39
24160;BME280;62385;41.594;23.808;2024-03-02T03:37:05;94875.53;;;8.52;94.24
24160;BME280;62385;41.594;23.808;2024-03-02T03:39:34;94881.03;;;8.73;93.43
24160;BME280;62385;41.594;23.808;2024-03-02T03:41:59;94871.75;;;8.77;93.68
24160;BME280;62385;41.594;23.808;2024-03-02T03:44:25;94859.66;;;8.75;93.82
24160;BME280;62385;41.594;23.808;2024-03-02T03:46:50;94870.56;;;8.80;93.98
24160;BME280;62385;41.594;23.808;2024-03-02T03:49:16;94867.75;;;8.82;93.51
24160;BME280;62385;41.594;23.808;2024-03-02T03:51:41;94870.50;;;8.88;92.46
24160;BME280;62385;41.594;23.808;2024-03-02T03:54:07;94866.03;;;8.89;92.68
24160;BME280;62385;41.594;23.808;2024-03-02T03:56:32;94865.22;;;8.88;92.72
24160;BME280;62385;41.594;23.808;2024-03-02T03:58:58;94862.94;;;8.85;91.86
24160;BME280;62385;41.594;23.808;2024-03-02T04:01:25;94866.03;;;8.89;92.44
24160;BME280;62385;41.594;23.808;2024-03-02T04:03:50;94862.41;;;8.90;93.17
24160;BME280;62385;41.594;23.808;2024-03-02T04:06:16;94834.44;;;8.64;93.67
24160;BME280;62385;41.594;23.808;2024-03-02T04:08:42;94860.81;;;8.80;93.56
24160;BME280;62385;41.594;23.808;2024-03-02T04:11:08;94861.44;;;8.82;93.03
24160;BME280;62385;41.594;23.808;2024-03-02T04:13:34;94862.63;;;8.80;93.53
24160;BME280;62385;41.594;23.808;2024-03-02T04:15:59;94877.72;;;8.71;93.76
24160;BME280;62385;41.594;23.808;2024-03-02T04:18:25;94870.31;;;8.67;93.55
24160;BME280;62385;41.594;23.808;2024-03-02T04:20:50;94860.44;;;8.84;92.90
24160;BME280;62385;41.594;23.808;2024-03-02T04:23:16;94869.53;;;8.89;93.27
24160;BME280;62385;41.594;23.808;2024-03-02T04:25:42;94851.63;;;8.68;93.44
24160;BME280;62385;41.594;23.808;2024-03-02T04:28:07;94874.19;;;8.79;93.96
24160;BME280;62385;41.594;23.808;2024-03-02T04:30:33;94873.72;;;8.75;93.91
24160;BME280;62385;41.594;23.808;2024-03-02T04:32:59;94818.94;;;8.53;92.96
24160;BME280;62385;41.594;23.808;2024-03-02T04:35:24;94843.38;;;8.63;93.50
24160;BME280;62385;41.594;23.808;2024-03-02T04:37:50;94871.50;;;8.87;94.00
24160;BME280;62385;41.594;23.808;2024-03-02T04:40:16;94858.84;;;8.74;93.50
24160;BME280;62385;41.594;23.808;2024-03-02T04:42:42;94889.41;;;8.85;93.37
24160;BME280;62385;41.594;23.808;2024-03-02T04:45:08;94868.31;;;8.69;92.88
24160;BME280;62385;41.594;23.808;2024-03-02T04:47:34;94884.84;;;8.71;92.15
24160;BME280;62385;41.594;23.808;2024-03-02T04:50:00;94865.97;;;8.74;91.62
24160;BME280;62385;41.594;23.808;2024-03-02T04:52:26;94880.47;;;8.78;92.27
24160;BME280;62385;41.594;23.808;2024-03-02T04:54:51;94862.69;;;8.72;91.25
24160;BME280;62385;41.594;23.808;2024-03-02T04:57:42;94852.63;;;8.67;91.98
24160;BME280;62385;41.594;23.808;2024-03-02T05:00:08;94884.66;;;8.72;91.93
24160;BME280;62385;41.594;23.808;2024-03-02T05:02:35;94873.25;;;8.72;92.75
24160;BME280;62385;41.594;23.808;2024-03-02T05:05:00;94880.22;;;8.73;92.31
24160;BME280;62385;41.594;23.808;2024-03-02T05:07:26;94888.00;;;8.66;92.30
24160;BME280;62385;41.594;23.808;2024-03-02T05:09:52;94892.31;;;8.67;92.49
24160;BME280;62385;41.594;23.808;2024-03-02T05:12:17;94858.19;;;8.42;92.33
24160;BME280;62385;41.594;23.808;2024-03-02T05:15:01;94888.66;;;8.68;92.17
24160;BME280;62385;41.594;23.808;2024-03-02T05:17:27;94857.56;;;8.40;91.91
24160;BME280;62385;41.594;23.808;2024-03-02T05:19:53;94891.66;;;8.65;92.43
24160;BME280;62385;41.594;23.808;2024-03-02T05:22:18;94897.16;;;8.56;92.13
24160;BME280;62385;41.594;23.808;2024-03-02T05:24:44;94887.44;;;8.48;92.05
24160;BME280;62385;41.594;23.808;2024-03-02T05:27:09;94867.59;;;8.52;91.15
24160;BME280;62385;41.594;23.808;2024-03-02T05:29:35;94897.72;;;8.74;90.93
24160;BME280;62385;41.594;23.808;2024-03-02T05:32:01;94891.13;;;8.70;90.60
24160;BME280;62385;41.594;23.808;2024-03-02T05:34:26;94899.06;;;8.70;91.52
24160;BME280;62385;41.594;23.808;2024-03-02T05:36:52;94902.25;;;8.65;92.18
24160;BME280;62385;41.594;23.808;2024-03-02T05:39:18;94903.25;;;8.64;91.81
24160;BME280;62385;41.594;23.808;2024-03-02T05:41:44;94876.25;;;8.38;92.61
24160;BME280;62385;41.594;23.808;2024-03-02T05:44:09;94877.72;;;8.41;91.78
24160;BME280;62385;41.594;23.808;2024-03-02T05:46:35;94880.38;;;8.32;92.11
24160;BME280;62385;41.594;23.808;2024-03-02T05:49:00;94902.13;;;8.51;91.94
24160;BME280;62385;41.594;23.808;2024-03-02T05:51:26;94911.00;;;8.66;91.91
24160;BME280;62385;41.594;23.808;2024-03-02T05:53:52;94919.94;;;8.65;92.22
24160;BME280;62385;41.594;23.808;2024-03-02T05:56:17;94873.44;;;8.40;91.41
24160;BME280;62385;41.594;23.808;2024-03-02T05:58:43;94905.41;;;8.61;91.89
24160;BME280;62385;41.594;23.808;2024-03-02T06:01:23;94908.41;;;8.50;91.37
24160;BME280;62385;41.594;23.808;2024-03-02T06:03:55;94889.28;;;8.48;91.06
24160;BME280;62385;41.594;23.808;2024-03-02T06:06:21;94875.44;;;8.29;91.24
24160;BME280;62385;41.594;23.808;2024-03-02T06:08:46;94919.94;;;8.65;91.21
24160;BME280;62385;41.594;23.808;2024-03-02T06:11:12;94916.91;;;8.76;89.67
24160;BME280;62385;41.594;23.808;2024-03-02T06:13:37;94877.84;;;8.47;90.42
24160;BME280;62385;41.594;23.808;2024-03-02T06:16:03;94927.13;;;8.79;89.81
24160;BME280;62385;41.594;23.808;2024-03-02T06:18:29;94905.88;;;8.64;90.13
24160;BME280;62385;41.594;23.808;2024-03-02T06:20:54;94923.63;;;8.87;90.36
24160;BME280;62385;41.594;23.808;2024-03-02T06:23:20;94913.91;;;8.79;89.27
24160;BME280;62385;41.594;23.808;2024-03-02T06:25:45;94894.75;;;8.77;89.82
24160;BME280;62385;41.594;23.808;2024-03-02T06:28:11;94914.53;;;8.89;88.61
24160;BME280;62385;41.594;23.808;2024-03-02T06:30:37;94930.81;;;9.01;88.57
24160;BME280;62385;41.594;23.808;2024-03-02T06:33:03;94906.63;;;8.81;88.94
24160;BME280;62385;41.594;23.808;2024-03-02T06:35:29;94885.25;;;8.82;88.89
24160;BME280;62385;41.594;23.808;2024-03-02T06:37:55;94924.94;;;9.13;89.41
24160;BME280;62385;41.594;23.808;2024-03-02T06:40:20;94934.31;;;9.01;88.59
24160;BME280;62385;41.594;23.808;2024-03-02T06:42:47;94930.31;;;9.05;87.81
24160;BME280;62385;41.594;23.808;2024-03-02T06:45:12;94890.34;;;8.92;88.16
24160;BME280;62385;41.594;23.808;2024-03-02T06:47:38;94887.84;;;8.91;88.70
24160;BME280;62385;41.594;23.808;2024-03-02T06:50:04;94895.63;;;8.92;88.76
24160;BME280;62385;41.594;23.808;2024-03-02T06:52:29;94922.25;;;9.21;89.05
24160;BME280;62385;41.594;23.808;2024-03-02T06:54:55;94916.00;;;9.14;88.88
24160;BME280;62385;41.594;23.808;2024-03-02T06:57:20;94874.94;;;8.96;90.16
24160;BME280;62385;41.594;23.808;2024-03-02T06:59:46;94924.16;;;9.36;89.92
24160;BME280;62385;41.594;23.808;2024-03-02T07:02:14;94910.97;;;9.27;90.41
24160;BME280;62385;41.594;23.808;2024-03-02T07:04:39;94935.28;;;9.31;89.18
24160;BME280;62385;41.594;23.808;2024-03-02T07:07:05;94928.69;;;9.27;89.79
24160;BME280;62385;41.594;23.808;2024-03-02T07:09:30;94915.44;;;9.27;89.47
24160;BME280;62385;41.594;23.808;2024-03-02T07:11:56;94893.19;;;9.13;88.67
24160;BME280;62385;41.594;23.808;2024-03-02T07:14:21;94905.47;;;9.29;89.02
24160;BME280;62385;41.594;23.808;2024-03-02T07:17:02;94901.00;;;9.30;89.17
24160;BME280;62385;41.594;23.808;2024-03-02T07:19:28;94913.28;;;9.45;88.55
24160;BME280;62385;41.594;23.808;2024-03-02T07:21:54;94924.94;;;9.59;88.02
24160;BME280;62385;41.594;23.808;2024-03-02T07:24:19;94936.09;;;9.69;88.56
24160;BME280;62385;41.594;23.808;2024-03-02T07:26:45;94906.47;;;9.51;87.92
24160;BME280;62385;41.594;23.808;2024-03-02T07:29:10;94886.63;;;9.47;87.88
24160;BME280;62385;41.594;23.808;2024-03-02T07:31:36;94932.38;;;9.63;87.25
24160;BME280;62385;41.594;23.808;2024-03-02T07:34:02;94915.63;;;9.63;88.21
24160;BME280;62385;41.594;23.808;2024-03-02T07:36:27;94910.63;;;9.68;87.41
24160;BME280;62385;41.594;23.808;2024-03-02T07:38:53;94901.72;;;9.61;87.05
24160;BME280;62385;41.594;23.808;2024-03-02T07:41:19;94915.72;;;9.69;86.87
24160;BME280;62385;41.594;23.808;2024-03-02T07:43:45;94911.59;;;9.30;87.99
24160;BME280;62385;41.594;23.808;2024-03-02T07:46:11;94951.16;;;9.54;86.98
24160;BME280;62385;41.594;23.808;2024-03-02T07:48:37;94928.72;;;9.42;87.69
24160;BME280;62385;41.594;23.808;2024-03-02T07:51:03;94942.47;;;9.83;86.53
24160;BME280;62385;41.594;23.808;2024-03-02T07:53:28;94936.09;;;9.92;87.01
24160;BME280;62385;41.594;23.808;2024-03-02T07:55:54;94948.72;;;9.67;88.80
24160;BME280;62385;41.594;23.808;2024-03-02T07:58:22;94936.75;;;9.71;87.44
24160;BME280;62385;41.594;23.808;2024-03-02T08:00:47;94951.97;;;9.77;87.62
24160;BME280;62385;41.594;23.808;2024-03-02T08:03:13;94922.38;;;9.65;86.85
24160;BME280;62385;41.594;23.808;2024-03-02T08:05:40;94936.75;;;9.56;86.56
24160;BME280;62385;41.594;23.808;2024-03-02T08:08:05;94932.31;;;9.86;86.93
24160;BME280;62385;41.594;23.808;2024-03-02T08:10:31;94928.38;;;9.82;86.32
24160;BME280;62385;41.594;23.808;2024-03-02T08:12:57;94952.13;;;9.76;86.89
24160;BME280;62385;41.594;23.808;2024-03-02T08:15:22;94924.09;;;9.81;86.72
24160;BME280;62385;41.594;23.808;2024-03-02T08:17:48;94949.81;;;9.95;85.73
24160;BME280;62385;41.594;23.808;2024-03-02T08:20:15;94974.16;;;9.76;87.00
24160;BME280;62385;41.594;23.808;2024-03-02T08:22:40;94930.81;;;9.69;86.13
24160;BME280;62385;41.594;23.808;2024-03-02T08:25:07;94979.00;;;9.50;86.17
24160;BME280;62385;41.594;23.808;2024-03-02T08:27:33;94951.09;;;9.39;86.83
24160;BME280;62385;41.594;23.808;2024-03-02T08:29:59;94978.16;;;9.49;87.53
24160;BME280;62385;41.594;23.808;2024-03-02T08:32:24;94973.53;;;9.51;88.23
24160;BME280;62385;41.594;23.808;2024-03-02T08:34:50;94941.91;;;9.50;86.83
24160;BME280;62385;41.594;23.808;2024-03-02T08:37:15;94950.00;;;10.08;84.59
24160;BME280;62385;41.594;23.808;2024-03-02T08:39:41;94951.25;;;10.50;84.42
24160;BME280;62385;41.594;23.808;2024-03-02T08:42:07;94972.59;;;10.42;83.84
24160;BME280;62385;41.594;23.808;2024-03-02T08:44:32;94962.78;;;10.57;83.54
24160;BME280;62385;41.594;23.808;2024-03-02T08:46:58;94954.56;;;10.23;86.93
24160;BME280;62385;41.594;23.808;2024-03-02T08:49:25;94956.28;;;10.45;84.94
24160;BME280;62385;41.594;23.808;2024-03-02T08:51:50;94976.03;;;10.28;85.84
24160;BME280;62385;41.594;23.808;2024-03-02T08:54:21;94952.63;;;10.60;84.88
24160;BME280;62385;41.594;23.808;2024-03-02T08:56:48;94912.47;;;10.63;82.68
24160;BME280;62385;41.594;23.808;2024-03-02T08:59:14;94947.31;;;10.31;84.20
24160;BME280;62385;41.594;23.808;2024-03-02T09:01:39;94977.16;;;10.48;83.27
24160;BME280;62385;41.594;23.808;2024-03-02T09:04:07;94947.94;;;10.48;83.24
24160;BME280;62385;41.594;23.808;2024-03-02T09:06:34;94978.16;;;10.61;83.75
24160;BME280;62385;41.594;23.808;2024-03-02T09:09:00;94935.16;;;10.51;84.80
24160;BME280;62385;41.594;23.808;2024-03-02T09:11:25;94975.03;;;10.87;82.38
24160;BME280;62385;41.594;23.808;2024-03-02T09:13:51;94960.50;;;10.54;84.14
24160;BME280;62385;41.594;23.808;2024-03-02T09:16:17;94976.59;;;10.52;84.14
24160;BME280;62385;41.594;23.808;2024-03-02T09:18:42;94970.56;;;10.88;82.32
24160;BME280;62385;41.594;23.808;2024-03-02T09:21:08;94919.34;;;10.94;80.83
24160;BME280;62385;41.594;23.808;2024-03-02T09:23:33;94922.81;;;11.09;81.56
24160;BME280;62385;41.594;23.808;2024-03-02T09:25:59;94969.19;;;11.28;81.63
24160;BME280;62385;41.594;23.808;2024-03-02T09:28:25;94962.47;;;11.68;80.08
24160;BME280;62385;41.594;23.808;2024-03-02T09:30:50;94960.81;;;11.31;80.83
24160;BME280;62385;41.594;23.808;2024-03-02T09:33:16;94940.81;;;11.71;79.35
24160;BME280;62385;41.594;23.808;2024-03-02T09:35:42;94957.88;;;11.40;80.32
24160;BME280;62385;41.594;23.808;2024-03-02T09:38:07;94938.88;;;11.79;77.53
24160;BME280;62385;41.594;23.808;2024-03-02T09:40:33;94970.75;;;12.00;77.75
24160;BME280;62385;41.594;23.808;2024-03-02T09:42:59;94960.97;;;11.80;78.20
24160;BME280;62385;41.594;23.808;2024-03-02T09:45:26;94971.72;;;11.72;77.59
24160;BME280;62385;41.594;23.808;2024-03-02T09:47:52;94957.53;;;11.86;77.99
24160;BME280;62385;41.594;23.808;2024-03-02T09:50:17;94931.31;;;12.38;77.20
24160;BME280;62385;41.594;23.808;2024-03-02T09:52:43;94959.41;;;12.75;74.98
24160;BME280;62385;41.594;23.808;2024-03-02T09:55:09;94971.50;;;12.16;77.12
24160;BME280;62385;41.594;23.808;2024-03-02T09:57:35;94944.97;;;12.29;75.38
24160;BME280;62385;41.594;23.808;2024-03-02T10:00:01;94952.56;;;11.62;77.58
24160;BME280;62385;41.594;23.808;2024-03-02T10:02:26;94930.84;;;11.16;78.20
24160;BME280;62385;41.594;23.808;2024-03-02T10:04:52;94959.31;;;11.43;78.07
24160;BME280;62385;41.594;23.808;2024-03-02T10:07:18;94932.69;;;11.36;78.25
24160;BME280;62385;41.594;23.808;2024-03-02T10:09:45;94946.00;;;12.28;75.74
24160;BME280;62385;41.594;23.808;2024-03-02T10:12:13;94927.44;;;11.64;77.03
24160;BME280;62385;41.594;23.808;2024-03-02T10:14:40;94906.03;;;11.93;75.90
24160;BME280;62385;41.594;23.808;2024-03-02T10:17:10;94942.97;;;11.82;77.17
24160;BME280;62385;41.594;23.808;2024-03-02T10:19:37;94920.22;;;12.00;77.61
24160;BME280;62385;41.594;23.808;2024-03-02T10:22:08;94904.84;;;11.96;77.03
24160;BME280;62385;41.594;23.808;2024-03-02T10:24:43;94933.72;;;12.68;75.48
24160;BME280;62385;41.594;23.808;2024-03-02T10:27:18;94922.81;;;12.22;76.34
24160;BME280;62385;41.594;23.808;2024-03-02T10:29:47;94935.72;;;12.59;76.82
24160;BME280;62385;41.594;23.808;2024-03-02T10:32:12;94921.97;;;12.90;75.88
24160;BME280;62385;41.594;23.808;2024-03-02T10:34:44;94910.75;;;12.60;75.55
24160;BME280;62385;41.594;23.808;2024-03-02T10:37:12;94913.88;;;12.29;76.14
24160;BME280;62385;41.594;23.808;2024-03-02T10:39:39;94911.72;;;12.93;75.35
24160;BME280;62385;41.594;23.808;2024-03-02T10:42:08;94930.69;;;13.12;74.74
24160;BME280;62385;41.594;23.808;2024-03-02T10:44:34;94930.03;;;13.03;72.79
24160;BME280;62385;41.594;23.808;2024-03-02T10:47:01;94911.34;;;13.70;73.33
24160;BME280;62385;41.594;23.808;2024-03-02T10:49:31;94913.25;;;12.68;75.12
24160;BME280;62385;41.594;23.808;2024-03-02T10:51:58;94887.47;;;13.23;74.85
24160;BME280;62385;41.594;23.808;2024-03-02T10:54:24;94890.00;;;12.90;74.73
24160;BME280;62385;41.594;23.808;2024-03-02T10:56:53;94921.66;;;13.13;74.57
24160;BME280;62385;41.594;23.808;2024-03-02T10:59:33;94913.34;;;14.60;70.24
24160;BME280;62385;41.594;23.808;2024-03-02T11:02:00;94907.84;;;14.09;71.86
24160;BME280;62385;41.594;23.808;2024-03-02T11:04:27;94908.88;;;14.02;71.72
24160;BME280;62385;41.594;23.808;2024-03-02T11:09:33;94863.31;;;12.77;71.43
24160;BME280;62385;41.594;23.808;2024-03-02T11:12:09;94907.66;;;13.78;72.78
24160;BME280;62385;41.594;23.808;2024-03-02T11:14:56;94876.59;;;14.56;70.78
24160;BME280;62385;41.594;23.808;2024-03-02T11:17:23;94894.69;;;14.21;71.55
24160;BME280;62385;41.594;23.808;2024-03-02T11:19:49;94894.03;;;14.58;71.10
24160;BME280;62385;41.594;23.808;2024-03-02T11:22:15;94895.94;;;14.31;67.81
24160;BME280;62385;41.594;23.808;2024-03-02T11:24:49;94896.13;;;14.17;71.33
24160;BME280;62385;41.594;23.808;2024-03-02T11:32:57;94884.19;;;12.73;73.28
24160;BME280;62385;41.594;23.808;2024-03-02T11:35:25;94890.66;;;12.17;74.29
24160;BME280;62385;41.594;23.808;2024-03-02T11:37:51;94892.34;;;12.59;74.99
24160;BME280;62385;41.594;23.808;2024-03-02T11:40:25;94896.09;;;12.36;75.14
24160;BME280;62385;41.594;23.808;2024-03-02T11:42:50;94865.56;;;12.32;75.13
24160;BME280;62385;41.594;23.808;2024-03-02T11:45:17;94861.75;;;12.48;73.54
24160;BME280;62385;41.594;23.808;2024-03-02T11:47:50;94848.41;;;12.41;73.49
24160;BME280;62385;41.594;23.808;2024-03-02T11:50:15;94880.06;;;11.95;73.48
24160;BME280;62385;41.594;23.808;2024-03-02T11:52:53;94861.91;;;12.40;74.29
24160;BME280;62385;41.594;23.808;2024-03-02T11:55:20;94854.84;;;12.19;73.45
24160;BME280;62385;41.594;23.808;2024-03-02T11:57:46;94845.34;;;12.03;74.10
24160;BME280;62385;41.594;23.808;2024-03-02T12:00:19;94869.22;;;12.31;73.49
24160;BME280;62385;41.594;23.808;2024-03-02T12:03:06;94867.63;;;12.84;73.97
24160;BME280;62385;41.594;23.808;2024-03-02T12:05:32;94856.66;;;12.53;73.59
24160;BME280;62385;41.594;23.808;2024-03-02T12:07:59;94876.44;;;12.85;72.88
24160;BME280;62385;41.594;23.808;2024-03-02T12:10:26;94875.78;;;12.76;73.62
24160;BME280;62385;41.594;23.808;2024-03-02T12:12:59;94871.44;;;12.62;73.96
24160;BME280;62385;41.594;23.808;2024-03-02T12:15:32;94875.16;;;13.15;72.63
24160;BME280;62385;41.594;23.808;2024-03-02T12:18:00;94868.63;;;12.70;73.20
24160;BME280;62385;41.594;23.808;2024-03-02T12:20:28;94882.09;;;12.62;73.49
24160;BME280;62385;41.594;23.808;2024-03-02T12:22:56;94872.00;;;12.51;73.15
24160;BME280;62385;41.594;23.808;2024-03-02T12:25:23;94870.22;;;12.71;73.56
24160;BME280;62385;41.594;23.808;2024-03-02T12:27:57;94864.25;;;12.56;73.35
24160;BME280;62385;41.594;23.808;2024-03-02T12:30:23;94849.50;;;12.13;74.78
24160;BME280;62385;41.594;23.808;2024-03-02T12:32:49;94824.22;;;12.36;73.68
24160;BME280;62385;41.594;23.808;2024-03-02T12:35:15;94856.88;;;12.58;73.23
24160;BME280;62385;41.594;23.808;2024-03-02T12:37:48;94837.03;;;12.67;71.91
24160;BME280;62385;41.594;23.808;2024-03-02T12:40:18;94855.03;;;13.13;71.17
24160;BME280;62385;41.594;23.808;2024-03-02T12:42:47;94811.22;;;12.61;72.14
24160;BME280;62385;41.594;23.808;2024-03-02T12:45:13;94864.13;;;12.71;72.21
24160;BME280;62385;41.594;23.808;2024-03-02T12:47:40;94820.25;;;12.67;71.68
24160;BME280;62385;41.594;23.808;2024-03-02T12:50:06;94808.72;;;12.53;73.44
24160;BME280;62385;41.594;23.808;2024-03-02T12:52:32;94845.31;;;12.85;72.63
24160;BME280;62385;41.594;23.808;2024-03-02T12:55:00;94867.84;;;12.83;72.71
24160;BME280;62385;41.594;23.808;2024-03-02T12:57:26;94869.50;;;12.90;73.06
24160;BME280;62385;41.594;23.808;2024-03-02T13:00:00;94856.44;;;13.09;71.48
24160;BME280;62385;41.594;23.808;2024-03-02T13:02:30;94852.97;;;12.54;73.15
24160;BME280;62385;41.594;23.808;2024-03-02T13:04:58;94840.94;;;12.65;73.35
24160;BME280;62385;41.594;23.808;2024-03-02T13:07:24;94837.19;;;12.53;72.22